sensor_id;sensor_type;location;lat;lon;timestamp;temperature;humidity
48998;DHT22;34807;51.456;7.244;2023-04-16T00:02:11;8.90;96.10
48998;DHT22;34807;51.456;7.244;2023-04-16T00:04:36;8.90;96.10
48998;DHT22;34807;51.456;7.244;2023-04-16T00:07:02;8.90;96.10
48998;DHT22;34807;51.456;7.244;2023-04-16T00:09:28;8.90;95.90
48998;DHT22;34807;51.456;7.244;2023-04-16T00:11:53;8.90;96.00
48998;DHT22;34807;51.456;7.244;2023-04-16T00:14:19;8.90;96.00
48998;DHT22;34807;51.456;7.244;2023-04-16T00:16:44;8.90;96.10
48998;DHT22;34807;51.456;7.244;2023-04-16T00:19:10;8.90;96.10
48998;DHT22;34807;51.456;7.244;2023-04-16T00:21:35;8.90;96.10
48998;DHT22;34807;51.456;7.244;2023-04-16T00:24:01;8.80;96.00
48998;DHT22;34807;51.456;7.244;2023-04-16T00:26:26;8.90;95.90
48998;DHT22;34807;51.456;7.244;2023-04-16T00:28:52;8.90;96.30
48998;DHT22;34807;51.456;7.244;2023-04-16T00:31:17;8.80;96.20
48998;DHT22;34807;51.456;7.244;2023-04-16T00:33:43;8.90;96.00
48998;DHT22;34807;51.456;7.244;2023-04-16T00:36:08;8.80;96.00
48998;DHT22;34807;51.456;7.244;2023-04-16T00:38:34;8.80;96.00
48998;DHT22;34807;51.456;7.244;2023-04-16T00:40:59;8.80;96.00
48998;DHT22;34807;51.456;7.244;2023-04-16T00:43:25;8.80;96.20
48998;DHT22;34807;51.456;7.244;2023-04-16T00:45:51;8.80;96.00
48998;DHT22;34807;51.456;7.244;2023-04-16T00:48:17;8.80;96.20
48998;DHT22;34807;51.456;7.244;2023-04-16T00:50:43;8.80;96.20
48998;DHT22;34807;51.456;7.244;2023-04-16T00:53:08;8.80;96.20
48998;DHT22;34807;51.456;7.244;2023-04-16T00:55:34;8.80;96.10
48998;DHT22;34807;51.456;7.244;2023-04-16T00:57:59;8.80;96.10
48998;DHT22;34807;51.456;7.244;2023-04-16T01:00:25;8.80;96.30
48998;DHT22;34807;51.456;7.244;2023-04-16T01:02:52;8.80;96.10
48998;DHT22;34807;51.456;7.244;2023-04-16T01:05:17;8.80;96.20
48998;DHT22;34807;51.456;7.244;2023-04-16T01:07:43;8.80;96.40
48998;DHT22;34807;51.456;7.244;2023-04-16T01:10:08;8.80;96.30
48998;DHT22;34807;51.456;7.244;2023-04-16T01:12:34;8.80;96.40
48998;DHT22;34807;51.456;7.244;2023-04-16T01:15:00;8.80;96.20
48998;DHT22;34807;51.456;7.244;2023-04-16T01:17:25;8.80;96.40
48998;DHT22;34807;51.456;7.244;2023-04-16T01:19:51;8.80;96.30
48998;DHT22;34807;51.456;7.244;2023-04-16T01:22:16;8.80;96.40
48998;DHT22;34807;51.456;7.244;2023-04-16T01:24:42;8.80;96.60
48998;DHT22;34807;51.456;7.244;2023-04-16T01:27:07;8.80;96.70
48998;DHT22;34807;51.456;7.244;2023-04-16T01:29:33;8.80;96.40
48998;DHT22;34807;51.456;7.244;2023-04-16T01:31:59;8.80;96.30
48998;DHT22;34807;51.456;7.244;2023-04-16T01:34:24;8.80;96.50
48998;DHT22;34807;51.456;7.244;2023-04-16T01:36:50;8.80;96.30
48998;DHT22;34807;51.456;7.244;2023-04-16T01:39:16;8.80;96.50
48998;DHT22;34807;51.456;7.244;2023-04-16T01:41:43;8.80;96.30
48998;DHT22;34807;51.456;7.244;2023-04-16T01:44:09;8.80;96.30
48998;DHT22;34807;51.456;7.244;2023-04-16T01:46:35;8.80;96.50
48998;DHT22;34807;51.456;7.244;2023-04-16T01:49:01;8.80;96.40
48998;DHT22;34807;51.456;7.244;2023-04-16T01:51:28;8.80;96.40
48998;DHT22;34807;51.456;7.244;2023-04-16T01:53:53;8.80;96.60
48998;DHT22;34807;51.456;7.244;2023-04-16T01:56:19;8.80;96.40
48998;DHT22;34807;51.456;7.244;2023-04-16T01:58:45;8.80;96.50
48998;DHT22;34807;51.456;7.244;2023-04-16T02:01:11;8.80;96.60
48998;DHT22;34807;51.456;7.244;2023-04-16T02:03:37;8.80;96.50
48998;DHT22;34807;51.456;7.244;2023-04-16T02:06:03;8.80;96.50
48998;DHT22;34807;51.456;7.244;2023-04-16T02:08:28;8.80;96.50
48998;DHT22;34807;51.456;7.244;2023-04-16T02:10:54;8.80;96.40
48998;DHT22;34807;51.456;7.244;2023-04-16T02:13:20;8.80;96.60
48998;DHT22;34807;51.456;7.244;2023-04-16T02:15:46;8.70;96.60
48998;DHT22;34807;51.456;7.244;2023-04-16T02:18:12;8.70;96.50
48998;DHT22;34807;51.456;7.244;2023-04-16T02:20:44;8.80;96.70
48998;DHT22;34807;51.456;7.244;2023-04-16T02:23:10;8.80;96.70
48998;DHT22;34807;51.456;7.244;2023-04-16T02:25:42;8.80;96.70
48998;DHT22;34807;51.456;7.244;2023-04-16T02:28:08;8.80;96.60
48998;DHT22;34807;51.456;7.244;2023-04-16T02:30:37;8.80;96.70
48998;DHT22;34807;51.456;7.244;2023-04-16T02:33:06;8.80;96.50
48998;DHT22;34807;51.456;7.244;2023-04-16T02:35:32;8.70;96.60
48998;DHT22;34807;51.456;7.244;2023-04-16T02:37:58;8.70;96.70
48998;DHT22;34807;51.456;7.244;2023-04-16T02:40:24;8.70;96.70
48998;DHT22;34807;51.456;7.244;2023-04-16T02:42:49;8.80;96.80
48998;DHT22;34807;51.456;7.244;2023-04-16T02:45:15;8.80;96.70
48998;DHT22;34807;51.456;7.244;2023-04-16T02:47:40;8.70;96.70
48998;DHT22;34807;51.456;7.244;2023-04-16T02:50:06;8.80;96.80
48998;DHT22;34807;51.456;7.244;2023-04-16T02:52:32;8.70;96.80
48998;DHT22;34807;51.456;7.244;2023-04-16T02:54:58;8.70;96.70
48998;DHT22;34807;51.456;7.244;2023-04-16T02:57:23;8.80;96.70
48998;DHT22;34807;51.456;7.244;2023-04-16T02:59:49;8.70;96.80
48998;DHT22;34807;51.456;7.244;2023-04-16T03:02:14;8.80;96.80
48998;DHT22;34807;51.456;7.244;2023-04-16T03:04:40;8.70;96.70
48998;DHT22;34807;51.456;7.244;2023-04-16T03:07:06;8.80;96.70
48998;DHT22;34807;51.456;7.244;2023-04-16T03:09:33;8.80;96.90
48998;DHT22;34807;51.456;7.244;2023-04-16T03:11:59;8.70;96.80
48998;DHT22;34807;51.456;7.244;2023-04-16T03:14:26;8.70;96.80
48998;DHT22;34807;51.456;7.244;2023-04-16T03:16:51;8.80;96.90
48998;DHT22;34807;51.456;7.244;2023-04-16T03:19:17;8.70;96.80
48998;DHT22;34807;51.456;7.244;2023-04-16T03:21:42;8.70;96.90
48998;DHT22;34807;51.456;7.244;2023-04-16T03:24:08;8.70;96.80
48998;DHT22;34807;51.456;7.244;2023-04-16T03:26:33;8.70;96.90
48998;DHT22;34807;51.456;7.244;2023-04-16T03:28:59;8.70;96.90
48998;DHT22;34807;51.456;7.244;2023-04-16T03:31:26;8.70;96.90
48998;DHT22;34807;51.456;7.244;2023-04-16T03:33:52;8.80;96.80
48998;DHT22;34807;51.456;7.244;2023-04-16T03:36:17;8.80;96.80
48998;DHT22;34807;51.456;7.244;2023-04-16T03:38:43;8.80;96.80
48998;DHT22;34807;51.456;7.244;2023-04-16T03:41:08;8.70;96.70
48998;DHT22;34807;51.456;7.244;2023-04-16T03:43:34;8.80;96.80
48998;DHT22;34807;51.456;7.244;2023-04-16T03:45:59;8.80;96.90
48998;DHT22;34807;51.456;7.244;2023-04-16T03:48:25;8.80;96.80
48998;DHT22;34807;51.456;7.244;2023-04-16T03:50:50;8.80;96.80
48998;DHT22;34807;51.456;7.244;2023-04-16T03:53:16;8.70;96.70
48998;DHT22;34807;51.456;7.244;2023-04-16T03:55:41;8.80;96.80
48998;DHT22;34807;51.456;7.244;2023-04-16T03:58:07;8.80;96.80
48998;DHT22;34807;51.456;7.244;2023-04-16T04:00:33;8.70;96.70
48998;DHT22;34807;51.456;7.244;2023-04-16T04:02:58;8.80;96.80
48998;DHT22;34807;51.456;7.244;2023-04-16T04:05:24;8.70;96.70
48998;DHT22;34807;51.456;7.244;2023-04-16T04:07:49;8.80;96.80
48998;DHT22;34807;51.456;7.244;2023-04-16T04:10:15;8.70;96.90
48998;DHT22;34807;51.456;7.244;2023-04-16T04:12:41;8.70;96.80
48998;DHT22;34807;51.456;7.244;2023-04-16T04:15:06;8.70;96.60
48998;DHT22;34807;51.456;7.244;2023-04-16T04:17:32;8.80;96.80
48998;DHT22;34807;51.456;7.244;2023-04-16T04:19:58;8.80;96.80
48998;DHT22;34807;51.456;7.244;2023-04-16T04:22:23;8.70;96.80
48998;DHT22;34807;51.456;7.244;2023-04-16T04:24:49;8.70;96.60
48998;DHT22;34807;51.456;7.244;2023-04-16T04:27:14;8.70;96.70
48998;DHT22;34807;51.456;7.244;2023-04-16T04:29:40;8.80;96.70
48998;DHT22;34807;51.456;7.244;2023-04-16T04:32:05;8.70;96.80
48998;DHT22;34807;51.456;7.244;2023-04-16T04:34:31;8.70;96.80
48998;DHT22;34807;51.456;7.244;2023-04-16T04:36:57;8.70;96.70
48998;DHT22;34807;51.456;7.244;2023-04-16T04:39:22;8.80;96.70
48998;DHT22;34807;51.456;7.244;2023-04-16T04:41:48;8.80;96.90
48998;DHT22;34807;51.456;7.244;2023-04-16T04:44:14;8.80;96.80
48998;DHT22;34807;51.456;7.244;2023-04-16T04:46:39;8.80;96.70
48998;DHT22;34807;51.456;7.244;2023-04-16T04:49:05;8.80;96.80
48998;DHT22;34807;51.456;7.244;2023-04-16T04:51:31;8.70;96.90
48998;DHT22;34807;51.456;7.244;2023-04-16T04:53:56;8.70;96.80
48998;DHT22;34807;51.456;7.244;2023-04-16T04:56:22;8.70;96.90
48998;DHT22;34807;51.456;7.244;2023-04-16T04:58:50;8.80;96.80
48998;DHT22;34807;51.456;7.244;2023-04-16T05:01:16;8.70;96.80
48998;DHT22;34807;51.456;7.244;2023-04-16T05:03:41;8.70;96.70
48998;DHT22;34807;51.456;7.244;2023-04-16T05:06:07;8.80;96.80
48998;DHT22;34807;51.456;7.244;2023-04-16T05:08:32;8.70;96.80
48998;DHT22;34807;51.456;7.244;2023-04-16T05:10:58;8.80;96.80
48998;DHT22;34807;51.456;7.244;2023-04-16T05:13:23;8.80;96.90
48998;DHT22;34807;51.456;7.244;2023-04-16T05:15:49;8.70;96.80
48998;DHT22;34807;51.456;7.244;2023-04-16T05:18:14;8.80;96.80
48998;DHT22;34807;51.456;7.244;2023-04-16T05:20:40;8.80;96.90
48998;DHT22;34807;51.456;7.244;2023-04-16T05:23:05;8.70;96.80
48998;DHT22;34807;51.456;7.244;2023-04-16T05:25:31;8.70;96.80
48998;DHT22;34807;51.456;7.244;2023-04-16T05:27:56;8.70;96.60
48998;DHT22;34807;51.456;7.244;2023-04-16T05:30:22;8.80;96.70
48998;DHT22;34807;51.456;7.244;2023-04-16T05:32:49;8.70;96.70
48998;DHT22;34807;51.456;7.244;2023-04-16T05:35:14;8.70;96.70
48998;DHT22;34807;51.456;7.244;2023-04-16T05:37:40;8.70;96.60
48998;DHT22;34807;51.456;7.244;2023-04-16T05:40:06;8.80;96.70
48998;DHT22;34807;51.456;7.244;2023-04-16T05:42:31;8.80;96.80
48998;DHT22;34807;51.456;7.244;2023-04-16T05:44:57;8.70;96.70
48998;DHT22;34807;51.456;7.244;2023-04-16T05:47:23;8.70;96.70
48998;DHT22;34807;51.456;7.244;2023-04-16T05:49:48;8.80;96.70
48998;DHT22;34807;51.456;7.244;2023-04-16T05:52:13;8.80;96.70
48998;DHT22;34807;51.456;7.244;2023-04-16T05:54:39;8.80;96.70
48998;DHT22;34807;51.456;7.244;2023-04-16T05:57:05;8.80;96.70
48998;DHT22;34807;51.456;7.244;2023-04-16T05:59:30;8.80;96.90
48998;DHT22;34807;51.456;7.244;2023-04-16T06:01:56;8.80;96.70
48998;DHT22;34807;51.456;7.244;2023-04-16T06:04:22;8.80;96.80
48998;DHT22;34807;51.456;7.244;2023-04-16T06:06:47;8.80;96.70
48998;DHT22;34807;51.456;7.244;2023-04-16T06:09:13;8.80;96.70
48998;DHT22;34807;51.456;7.244;2023-04-16T06:11:38;8.80;96.90
48998;DHT22;34807;51.456;7.244;2023-04-16T06:14:04;8.80;96.70
48998;DHT22;34807;51.456;7.244;2023-04-16T06:16:29;8.80;96.80
48998;DHT22;34807;51.456;7.244;2023-04-16T06:18:55;8.80;96.90
48998;DHT22;34807;51.456;7.244;2023-04-16T06:21:20;8.80;96.90
48998;DHT22;34807;51.456;7.244;2023-04-16T06:23:46;8.80;96.80
48998;DHT22;34807;51.456;7.244;2023-04-16T06:26:11;8.80;96.90
48998;DHT22;34807;51.456;7.244;2023-04-16T06:28:37;8.80;96.80
48998;DHT22;34807;51.456;7.244;2023-04-16T06:31:03;8.80;96.90
48998;DHT22;34807;51.456;7.244;2023-04-16T06:33:28;8.80;97.00
48998;DHT22;34807;51.456;7.244;2023-04-16T06:35:54;8.80;96.90
48998;DHT22;34807;51.456;7.244;2023-04-16T06:38:19;8.80;97.10
48998;DHT22;34807;51.456;7.244;2023-04-16T06:40:45;8.80;97.00
48998;DHT22;34807;51.456;7.244;2023-04-16T06:43:10;8.80;97.00
48998;DHT22;34807;51.456;7.244;2023-04-16T06:45:36;8.80;97.00
48998;DHT22;34807;51.456;7.244;2023-04-16T06:48:01;8.80;97.20
48998;DHT22;34807;51.456;7.244;2023-04-16T06:50:28;8.90;97.20
48998;DHT22;34807;51.456;7.244;2023-04-16T06:52:53;8.90;97.10
48998;DHT22;34807;51.456;7.244;2023-04-16T06:55:19;8.90;97.10
48998;DHT22;34807;51.456;7.244;2023-04-16T06:57:45;8.90;97.10
48998;DHT22;34807;51.456;7.244;2023-04-16T07:00:10;8.90;96.90
48998;DHT22;34807;51.456;7.244;2023-04-16T07:02:36;9.00;97.00
48998;DHT22;34807;51.456;7.244;2023-04-16T07:05:02;9.00;97.00
48998;DHT22;34807;51.456;7.244;2023-04-16T07:07:27;9.00;96.90
48998;DHT22;34807;51.456;7.244;2023-04-16T07:09:53;9.00;96.90
48998;DHT22;34807;51.456;7.244;2023-04-16T07:12:18;9.00;96.80
48998;DHT22;34807;51.456;7.244;2023-04-16T07:14:45;9.00;96.80
48998;DHT22;34807;51.456;7.244;2023-04-16T07:17:10;9.10;96.80
48998;DHT22;34807;51.456;7.244;2023-04-16T07:19:36;9.10;96.80
48998;DHT22;34807;51.456;7.244;2023-04-16T07:22:01;9.10;96.80
48998;DHT22;34807;51.456;7.244;2023-04-16T07:24:27;9.10;96.70
48998;DHT22;34807;51.456;7.244;2023-04-16T07:26:53;9.10;96.90
48998;DHT22;34807;51.456;7.244;2023-04-16T07:29:18;9.20;97.10
48998;DHT22;34807;51.456;7.244;2023-04-16T07:31:44;9.10;96.80
48998;DHT22;34807;51.456;7.244;2023-04-16T07:34:10;9.20;96.80
48998;DHT22;34807;51.456;7.244;2023-04-16T07:36:36;9.20;96.90
48998;DHT22;34807;51.456;7.244;2023-04-16T07:39:01;9.20;96.80
48998;DHT22;34807;51.456;7.244;2023-04-16T07:41:27;9.20;96.80
48998;DHT22;34807;51.456;7.244;2023-04-16T07:43:53;9.20;96.90
48998;DHT22;34807;51.456;7.244;2023-04-16T07:46:19;9.20;96.80
48998;DHT22;34807;51.456;7.244;2023-04-16T07:48:45;9.20;96.80
48998;DHT22;34807;51.456;7.244;2023-04-16T07:51:11;9.30;96.80
48998;DHT22;34807;51.456;7.244;2023-04-16T07:53:37;9.30;96.80
48998;DHT22;34807;51.456;7.244;2023-04-16T07:56:02;9.30;96.80
48998;DHT22;34807;51.456;7.244;2023-04-16T07:58:28;9.30;97.00
48998;DHT22;34807;51.456;7.244;2023-04-16T08:00:53;9.40;97.10
48998;DHT22;34807;51.456;7.244;2023-04-16T08:03:19;9.40;97.00
48998;DHT22;34807;51.456;7.244;2023-04-16T08:05:44;9.40;96.80
48998;DHT22;34807;51.456;7.244;2023-04-16T08:08:10;9.50;96.80
48998;DHT22;34807;51.456;7.244;2023-04-16T08:10:35;9.50;96.90
48998;DHT22;34807;51.456;7.244;2023-04-16T08:13:01;9.60;96.90
48998;DHT22;34807;51.456;7.244;2023-04-16T08:15:26;9.60;96.80
48998;DHT22;34807;51.456;7.244;2023-04-16T08:17:52;9.60;96.70
48998;DHT22;34807;51.456;7.244;2023-04-16T08:20:17;9.70;96.90
48998;DHT22;34807;51.456;7.244;2023-04-16T08:22:44;9.70;96.90
48998;DHT22;34807;51.456;7.244;2023-04-16T08:25:09;9.70;96.80
48998;DHT22;34807;51.456;7.244;2023-04-16T08:27:35;9.70;96.90
48998;DHT22;34807;51.456;7.244;2023-04-16T08:30:00;9.80;96.90
48998;DHT22;34807;51.456;7.244;2023-04-16T08:32:26;9.80;96.60
48998;DHT22;34807;51.456;7.244;2023-04-16T08:34:52;9.80;96.70
48998;DHT22;34807;51.456;7.244;2023-04-16T08:37:17;9.70;96.70
48998;DHT22;34807;51.456;7.244;2023-04-16T08:39:43;9.80;96.70
48998;DHT22;34807;51.456;7.244;2023-04-16T08:42:20;9.80;96.60
48998;DHT22;34807;51.456;7.244;2023-04-16T08:44:47;9.80;96.80
48998;DHT22;34807;51.456;7.244;2023-04-16T08:47:13;9.80;96.70
48998;DHT22;34807;51.456;7.244;2023-04-16T08:49:43;9.90;96.70
48998;DHT22;34807;51.456;7.244;2023-04-16T08:52:13;9.90;96.60
48998;DHT22;34807;51.456;7.244;2023-04-16T08:54:45;9.90;96.50
48998;DHT22;34807;51.456;7.244;2023-04-16T08:57:12;9.90;96.60
48998;DHT22;34807;51.456;7.244;2023-04-16T08:59:44;10.00;96.60
48998;DHT22;34807;51.456;7.244;2023-04-16T09:02:10;10.00;96.50
48998;DHT22;34807;51.456;7.244;2023-04-16T09:04:36;10.10;96.50
48998;DHT22;34807;51.456;7.244;2023-04-16T09:07:02;10.10;96.50
48998;DHT22;34807;51.456;7.244;2023-04-16T09:09:28;10.10;96.30
48998;DHT22;34807;51.456;7.244;2023-04-16T09:11:54;10.10;96.50
48998;DHT22;34807;51.456;7.244;2023-04-16T09:14:20;10.10;96.40
48998;DHT22;34807;51.456;7.244;2023-04-16T09:16:46;10.20;96.50
48998;DHT22;34807;51.456;7.244;2023-04-16T09:19:13;10.20;96.40
48998;DHT22;34807;51.456;7.244;2023-04-16T09:21:39;10.20;96.40
48998;DHT22;34807;51.456;7.244;2023-04-16T09:24:05;10.20;96.50
48998;DHT22;34807;51.456;7.244;2023-04-16T09:26:32;10.20;96.70
48998;DHT22;34807;51.456;7.244;2023-04-16T09:28:58;10.20;96.40
48998;DHT22;34807;51.456;7.244;2023-04-16T09:31:23;10.20;96.40
48998;DHT22;34807;51.456;7.244;2023-04-16T09:34:02;10.30;96.50
48998;DHT22;34807;51.456;7.244;2023-04-16T09:36:28;10.30;96.40
48998;DHT22;34807;51.456;7.244;2023-04-16T09:38:54;10.30;96.40
48998;DHT22;34807;51.456;7.244;2023-04-16T09:41:26;10.30;96.30
48998;DHT22;34807;51.456;7.244;2023-04-16T09:46:18;10.30;96.40
48998;DHT22;34807;51.456;7.244;2023-04-16T09:48:44;10.40;96.30
48998;DHT22;34807;51.456;7.244;2023-04-16T09:51:10;10.40;96.20
48998;DHT22;34807;51.456;7.244;2023-04-16T09:53:35;10.40;96.40
48998;DHT22;34807;51.456;7.244;2023-04-16T09:56:01;10.50;96.30
48998;DHT22;34807;51.456;7.244;2023-04-16T09:58:27;10.50;96.10
48998;DHT22;34807;51.456;7.244;2023-04-16T10:01:04;10.50;96.20
48998;DHT22;34807;51.456;7.244;2023-04-16T10:03:30;10.60;96.20
48998;DHT22;34807;51.456;7.244;2023-04-16T10:05:59;10.60;96.20
48998;DHT22;34807;51.456;7.244;2023-04-16T10:08:25;10.60;96.10
48998;DHT22;34807;51.456;7.244;2023-04-16T10:10:52;10.60;96.00
48998;DHT22;34807;51.456;7.244;2023-04-16T10:13:18;10.60;96.00
48998;DHT22;34807;51.456;7.244;2023-04-16T10:15:44;10.60;96.00
48998;DHT22;34807;51.456;7.244;2023-04-16T10:18:10;10.60;96.00
48998;DHT22;34807;51.456;7.244;2023-04-16T10:20:35;10.70;96.10
48998;DHT22;34807;51.456;7.244;2023-04-16T10:23:01;10.70;96.10
48998;DHT22;34807;51.456;7.244;2023-04-16T10:25:27;10.70;95.90
48998;DHT22;34807;51.456;7.244;2023-04-16T10:27:53;10.70;96.00
48998;DHT22;34807;51.456;7.244;2023-04-16T10:30:19;10.80;95.90
48998;DHT22;34807;51.456;7.244;2023-04-16T10:32:46;10.80;96.00
48998;DHT22;34807;51.456;7.244;2023-04-16T10:35:15;10.90;96.10
48998;DHT22;34807;51.456;7.244;2023-04-16T10:37:43;10.90;95.90
48998;DHT22;34807;51.456;7.244;2023-04-16T10:40:30;11.00;95.70
48998;DHT22;34807;51.456;7.244;2023-04-16T10:42:55;11.10;95.50
48998;DHT22;34807;51.456;7.244;2023-04-16T10:45:31;11.10;95.40
48998;DHT22;34807;51.456;7.244;2023-04-16T10:47:57;11.20;95.30
48998;DHT22;34807;51.456;7.244;2023-04-16T10:50:23;11.30;95.20
48998;DHT22;34807;51.456;7.244;2023-04-16T10:52:48;11.20;95.30
48998;DHT22;34807;51.456;7.244;2023-04-16T10:55:36;11.30;95.30
48998;DHT22;34807;51.456;7.244;2023-04-16T10:58:04;11.30;95.20
48998;DHT22;34807;51.456;7.244;2023-04-16T11:00:48;11.30;95.30
48998;DHT22;34807;51.456;7.244;2023-04-16T11:03:15;11.40;95.20
48998;DHT22;34807;51.456;7.244;2023-04-16T11:05:44;11.60;95.20
48998;DHT22;34807;51.456;7.244;2023-04-16T11:08:14;11.80;94.70
48998;DHT22;34807;51.456;7.244;2023-04-16T11:10:40;11.80;94.50
48998;DHT22;34807;51.456;7.244;2023-04-16T11:13:06;11.90;94.50
48998;DHT22;34807;51.456;7.244;2023-04-16T11:15:33;12.00;94.40
48998;DHT22;34807;51.456;7.244;2023-04-16T11:17:59;12.00;94.40
48998;DHT22;34807;51.456;7.244;2023-04-16T11:20:25;12.00;94.50
48998;DHT22;34807;51.456;7.244;2023-04-16T11:22:51;12.00;94.60
48998;DHT22;34807;51.456;7.244;2023-04-16T11:25:20;11.90;94.60
48998;DHT22;34807;51.456;7.244;2023-04-16T11:27:47;11.90;94.70
48998;DHT22;34807;51.456;7.244;2023-04-16T11:30:12;11.90;94.70
48998;DHT22;34807;51.456;7.244;2023-04-16T11:32:38;11.90;94.60
48998;DHT22;34807;51.456;7.244;2023-04-16T11:35:15;12.00;94.60
48998;DHT22;34807;51.456;7.244;2023-04-16T11:37:41;12.00;94.60
48998;DHT22;34807;51.456;7.244;2023-04-16T11:40:07;12.00;94.50
48998;DHT22;34807;51.456;7.244;2023-04-16T11:42:34;12.10;94.50
48998;DHT22;34807;51.456;7.244;2023-04-16T11:45:05;12.10;94.50
48998;DHT22;34807;51.456;7.244;2023-04-16T11:47:30;12.10;94.50
48998;DHT22;34807;51.456;7.244;2023-04-16T11:49:56;12.10;94.50
48998;DHT22;34807;51.456;7.244;2023-04-16T11:52:26;12.10;94.60
48998;DHT22;34807;51.456;7.244;2023-04-16T11:54:52;12.10;94.60
48998;DHT22;34807;51.456;7.244;2023-04-16T11:59:49;12.00;94.70
48998;DHT22;34807;51.456;7.244;2023-04-16T12:02:14;12.00;94.80
48998;DHT22;34807;51.456;7.244;2023-04-16T12:04:40;12.00;94.80
48998;DHT22;34807;51.456;7.244;2023-04-16T12:07:07;12.00;94.80
48998;DHT22;34807;51.456;7.244;2023-04-16T12:09:33;11.90;94.90
48998;DHT22;34807;51.456;7.244;2023-04-16T12:12:01;11.90;95.00
48998;DHT22;34807;51.456;7.244;2023-04-16T12:14:27;11.90;95.00
48998;DHT22;34807;51.456;7.244;2023-04-16T12:16:53;11.90;94.90
48998;DHT22;34807;51.456;7.244;2023-04-16T12:19:18;11.90;94.80
48998;DHT22;34807;51.456;7.244;2023-04-16T12:21:45;11.90;94.80
48998;DHT22;34807;51.456;7.244;2023-04-16T12:24:11;12.00;94.80
48998;DHT22;34807;51.456;7.244;2023-04-16T12:26:47;12.00;94.80
48998;DHT22;34807;51.456;7.244;2023-04-16T12:29:23;11.90;94.80
48998;DHT22;34807;51.456;7.244;2023-04-16T12:31:49;11.90;94.80
48998;DHT22;34807;51.456;7.244;2023-04-16T12:34:15;12.00;94.80
48998;DHT22;34807;51.456;7.244;2023-04-16T12:36:41;12.00;94.80
48998;DHT22;34807;51.456;7.244;2023-04-16T12:39:07;12.00;94.80
48998;DHT22;34807;51.456;7.244;2023-04-16T12:41:38;12.00;94.80
48998;DHT22;34807;51.456;7.244;2023-04-16T12:44:10;12.00;94.80
48998;DHT22;34807;51.456;7.244;2023-04-16T12:46:41;12.00;94.80
48998;DHT22;34807;51.456;7.244;2023-04-16T12:49:08;12.00;94.80
48998;DHT22;34807;51.456;7.244;2023-04-16T12:51:34;12.10;94.70
48998;DHT22;34807;51.456;7.244;2023-04-16T12:54:00;12.10;94.60
48998;DHT22;34807;51.456;7.244;2023-04-16T12:56:26;12.20;94.50
48998;DHT22;34807;51.456;7.244;2023-04-16T12:58:52;12.30;94.40
48998;DHT22;34807;51.456;7.244;2023-04-16T13:01:18;12.30;94.30
48998;DHT22;34807;51.456;7.244;2023-04-16T13:03:43;12.40;94.20
48998;DHT22;34807;51.456;7.244;2023-04-16T13:06:09;12.50;94.10
48998;DHT22;34807;51.456;7.244;2023-04-16T13:08:35;12.50;94.00
48998;DHT22;34807;51.456;7.244;2023-04-16T13:11:01;12.50;94.10
48998;DHT22;34807;51.456;7.244;2023-04-16T13:13:27;12.50;94.10
48998;DHT22;34807;51.456;7.244;2023-04-16T13:15:53;12.50;94.20
48998;DHT22;34807;51.456;7.244;2023-04-16T13:18:18;12.50;94.30
48998;DHT22;34807;51.456;7.244;2023-04-16T13:20:44;12.40;94.30
48998;DHT22;34807;51.456;7.244;2023-04-16T13:23:09;12.50;94.40
48998;DHT22;34807;51.456;7.244;2023-04-16T13:25:35;12.50;94.40
48998;DHT22;34807;51.456;7.244;2023-04-16T13:28:01;12.50;94.40
48998;DHT22;34807;51.456;7.244;2023-04-16T13:30:26;12.50;94.30
48998;DHT22;34807;51.456;7.244;2023-04-16T13:32:54;12.60;94.20
48998;DHT22;34807;51.456;7.244;2023-04-16T13:35:19;12.70;94.10
48998;DHT22;34807;51.456;7.244;2023-04-16T13:37:45;12.80;94.10
48998;DHT22;34807;51.456;7.244;2023-04-16T13:40:10;12.80;94.00
48998;DHT22;34807;51.456;7.244;2023-04-16T13:42:36;12.70;93.90
48998;DHT22;34807;51.456;7.244;2023-04-16T13:45:01;12.70;93.90
48998;DHT22;34807;51.456;7.244;2023-04-16T13:47:27;12.80;94.10
48998;DHT22;34807;51.456;7.244;2023-04-16T13:49:52;12.80;94.10
48998;DHT22;34807;51.456;7.244;2023-04-16T13:52:18;12.80;94.10
48998;DHT22;34807;51.456;7.244;2023-04-16T13:54:43;12.80;94.00
48998;DHT22;34807;51.456;7.244;2023-04-16T13:57:09;12.90;93.90
48998;DHT22;34807;51.456;7.244;2023-04-16T13:59:35;12.90;93.90
48998;DHT22;34807;51.456;7.244;2023-04-16T14:02:01;13.00;93.80
48998;DHT22;34807;51.456;7.244;2023-04-16T14:04:26;13.00;93.70
48998;DHT22;34807;51.456;7.244;2023-04-16T14:06:52;13.10;93.60
48998;DHT22;34807;51.456;7.244;2023-04-16T14:09:17;13.10;93.60
48998;DHT22;34807;51.456;7.244;2023-04-16T14:11:43;13.10;93.60
48998;DHT22;34807;51.456;7.244;2023-04-16T14:14:08;13.10;93.60
48998;DHT22;34807;51.456;7.244;2023-04-16T14:16:34;13.10;93.80
48998;DHT22;34807;51.456;7.244;2023-04-16T14:19:00;13.00;93.70
48998;DHT22;34807;51.456;7.244;2023-04-16T14:21:25;13.00;93.80
48998;DHT22;34807;51.456;7.244;2023-04-16T14:23:51;13.10;93.90
48998;DHT22;34807;51.456;7.244;2023-04-16T14:26:17;13.00;93.80
48998;DHT22;34807;51.456;7.244;2023-04-16T14:28:42;13.00;93.90
48998;DHT22;34807;51.456;7.244;2023-04-16T14:31:08;13.00;94.00
48998;DHT22;34807;51.456;7.244;2023-04-16T14:33:34;13.00;94.10
48998;DHT22;34807;51.456;7.244;2023-04-16T14:35:59;13.00;94.10
48998;DHT22;34807;51.456;7.244;2023-04-16T14:38:25;12.90;94.00
48998;DHT22;34807;51.456;7.244;2023-04-16T14:40:50;13.00;94.00
48998;DHT22;34807;51.456;7.244;2023-04-16T14:43:16;13.00;94.00
48998;DHT22;34807;51.456;7.244;2023-04-16T14:45:41;13.00;94.10
48998;DHT22;34807;51.456;7.244;2023-04-16T14:48:07;13.00;94.10
48998;DHT22;34807;51.456;7.244;2023-04-16T14:50:33;12.90;94.00
48998;DHT22;34807;51.456;7.244;2023-04-16T14:53:02;13.00;94.00
48998;DHT22;34807;51.456;7.244;2023-04-16T14:55:28;13.00;94.00
48998;DHT22;34807;51.456;7.244;2023-04-16T14:57:53;13.00;94.00
48998;DHT22;34807;51.456;7.244;2023-04-16T15:00:19;13.00;94.00
48998;DHT22;34807;51.456;7.244;2023-04-16T15:02:44;13.00;94.00
48998;DHT22;34807;51.456;7.244;2023-04-16T15:05:12;13.00;93.90
48998;DHT22;34807;51.456;7.244;2023-04-16T15:07:37;13.00;93.90
48998;DHT22;34807;51.456;7.244;2023-04-16T15:10:03;13.00;93.80
48998;DHT22;34807;51.456;7.244;2023-04-16T15:12:29;13.00;93.80
48998;DHT22;34807;51.456;7.244;2023-04-16T15:14:54;13.10;93.90
48998;DHT22;34807;51.456;7.244;2023-04-16T15:17:20;13.10;94.00
48998;DHT22;34807;51.456;7.244;2023-04-16T15:19:45;13.10;94.00
48998;DHT22;34807;51.456;7.244;2023-04-16T15:22:11;13.10;94.00
48998;DHT22;34807;51.456;7.244;2023-04-16T15:24:39;13.00;94.00
48998;DHT22;34807;51.456;7.244;2023-04-16T15:27:04;13.00;94.00
48998;DHT22;34807;51.456;7.244;2023-04-16T15:29:31;13.00;93.90
48998;DHT22;34807;51.456;7.244;2023-04-16T15:31:56;13.00;94.00
48998;DHT22;34807;51.456;7.244;2023-04-16T15:34:22;13.00;93.90
48998;DHT22;34807;51.456;7.244;2023-04-16T15:36:47;13.10;93.80
48998;DHT22;34807;51.456;7.244;2023-04-16T15:39:13;13.10;93.70